AAL207 KSLC-KSFO
Flight info
| Callsign | AAL207 |
|---|---|
| Flight time | 1h 26m |
| Altitude | 32000 |
| Route | DEZRT2 BAM LLC LEGGS BDEGA4 |
| Aircraft | B738/M-SDE2E3FGHIRWXY/LB1 |
Departure
| Time | 2026-05-05 20:35 |
|---|---|
| Airport | Salt Lake City International Airport (KSLC) |
Arrival
| Time | 2026-05-05 22:02 |
|---|---|
| Airport | San Francisco International Airport (KSFO) |
| Time | Latitude | Longitude | Altitude | Speed | Heading |
|---|---|---|---|---|---|
| 2026-05-05 19:55 | 40.78481 | -111.97834 | 4235 ft | 0 kts | 358° |
| 2026-05-05 20:24 | 40.78479 | -111.97834 | 4235 ft | 1 kts | 358° |
| 2026-05-05 20:24 | 40.78462 | -111.97834 | 4235 ft | 3 kts | 1° |
| 2026-05-05 20:24 | 40.78442 | -111.97835 | 4235 ft | 3 kts | 9° |
| 2026-05-05 20:25 | 40.78423 | -111.97842 | 4235 ft | 3 kts | 32° |
| 2026-05-05 20:25 | 40.78413 | -111.97854 | 4235 ft | 3 kts | 89° |
| 2026-05-05 20:25 | 40.78414 | -111.97863 | 4235 ft | 1 kts | 121° |
| 2026-05-05 20:25 | 40.78416 | -111.97866 | 4235 ft | 0 kts | 121° |
| 2026-05-05 20:27 | 40.78405 | -111.97813 | 4235 ft | 12 kts | 94° |
| 2026-05-05 20:28 | 40.78405 | -111.97683 | 4235 ft | 13 kts | 79° |
| 2026-05-05 20:28 | 40.78467 | -111.97637 | 4235 ft | 12 kts | 358° |
| 2026-05-05 20:28 | 40.78575 | -111.97650 | 4235 ft | 19 kts | 355° |
| 2026-05-05 20:28 | 40.78700 | -111.97666 | 4235 ft | 16 kts | 354° |
| 2026-05-05 20:29 | 40.78794 | -111.97679 | 4235 ft | 13 kts | 354° |
| 2026-05-05 20:29 | 40.78908 | -111.97691 | 4235 ft | 20 kts | 354° |
| 2026-05-05 20:29 | 40.79054 | -111.97709 | 4235 ft | 21 kts | 355° |
| 2026-05-05 20:29 | 40.79185 | -111.97725 | 4235 ft | 16 kts | 354° |
| 2026-05-05 20:30 | 40.79279 | -111.97736 | 4235 ft | 13 kts | 355° |
| 2026-05-05 20:30 | 40.79382 | -111.97748 | 4235 ft | 16 kts | 356° |
| 2026-05-05 20:30 | 40.79505 | -111.97764 | 4235 ft | 19 kts | 355° |
| 2026-05-05 20:30 | 40.79646 | -111.97778 | 4235 ft | 22 kts | 353° |
| 2026-05-05 20:31 | 40.79792 | -111.97797 | 4235 ft | 20 kts | 355° |
| 2026-05-05 20:31 | 40.79881 | -111.97806 | 4235 ft | 18 kts | 355° |
| 2026-05-05 20:31 | 40.79999 | -111.97826 | 4235 ft | 16 kts | 356° |
| 2026-05-05 20:31 | 40.80100 | -111.97831 | 4235 ft | 13 kts | 357° |
| 2026-05-05 20:32 | 40.80197 | -111.97843 | 4235 ft | 16 kts | 354° |
| 2026-05-05 20:32 | 40.80327 | -111.97860 | 4235 ft | 21 kts | 354° |
| 2026-05-05 20:32 | 40.80486 | -111.97880 | 4235 ft | 24 kts | 355° |
| 2026-05-05 20:32 | 40.80612 | -111.97872 | 4235 ft | 13 kts | 50° |
| 2026-05-05 20:33 | 40.80635 | -111.97748 | 4235 ft | 18 kts | 85° |
| 2026-05-05 20:33 | 40.80592 | -111.97665 | 4235 ft | 7 kts | 177° |
| 2026-05-05 20:33 | 40.80590 | -111.97665 | 4235 ft | 0 kts | 178° |
| 2026-05-05 20:34 | 40.80505 | -111.97657 | 4235 ft | 34 kts | 173° |
| 2026-05-05 20:34 | 40.80074 | -111.97607 | 4235 ft | 89 kts | 173° |
| 2026-05-05 20:34 | 40.79283 | -111.97514 | 4235 ft | 138 kts | 174° |
| 2026-05-05 20:35 | 40.78229 | -111.97376 | 4477 ft | 161 kts | 174° |
| 2026-05-05 20:35 | 40.77070 | -111.97226 | 5012 ft | 173 kts | 175° |
| 2026-05-05 20:35 | 40.75868 | -111.97103 | 5670 ft | 177 kts | 171° |
| 2026-05-05 20:35 | 40.74605 | -111.96844 | 6188 ft | 193 kts | 172° |
| 2026-05-05 20:36 | 40.73182 | -111.96754 | 6541 ft | 214 kts | 179° |
| 2026-05-05 20:36 | 40.71687 | -111.96743 | 7288 ft | 211 kts | 180° |
| 2026-05-05 20:36 | 40.70258 | -111.96714 | 8217 ft | 203 kts | 178° |
| 2026-05-05 20:36 | 40.68811 | -111.96574 | 8726 ft | 216 kts | 178° |
| 2026-05-05 20:37 | 40.67285 | -111.96892 | 9116 ft | 231 kts | 205° |
| 2026-05-05 20:37 | 40.66007 | -111.98223 | 9630 ft | 243 kts | 233° |
| 2026-05-05 20:37 | 40.65315 | -112.00288 | 10125 ft | 257 kts | 260° |
| 2026-05-05 20:37 | 40.65390 | -112.02709 | 10491 ft | 276 kts | 285° |
| 2026-05-05 20:38 | 40.66235 | -112.05035 | 11015 ft | 290 kts | 304° |
| 2026-05-05 20:38 | 40.67502 | -112.07221 | 11371 ft | 310 kts | 306° |
| 2026-05-05 20:38 | 40.68794 | -112.09579 | 11889 ft | 323 kts | 306° |
| 2026-05-05 20:38 | 40.70102 | -112.11984 | 12573 ft | 330 kts | 305° |
| 2026-05-05 20:39 | 40.71453 | -112.14474 | 13257 ft | 337 kts | 305° |
| 2026-05-05 20:39 | 40.72821 | -112.17004 | 13977 ft | 340 kts | 306° |
| 2026-05-05 20:39 | 40.74206 | -112.19563 | 14644 ft | 345 kts | 306° |
| 2026-05-05 20:39 | 40.75601 | -112.22147 | 15330 ft | 348 kts | 306° |
| 2026-05-05 20:40 | 40.77018 | -112.24768 | 15996 ft | 352 kts | 306° |
| 2026-05-05 20:40 | 40.78451 | -112.27422 | 16652 ft | 356 kts | 307° |
| 2026-05-05 20:40 | 40.79898 | -112.30102 | 17289 ft | 359 kts | 307° |
| 2026-05-05 20:40 | 40.81358 | -112.32807 | 17910 ft | 363 kts | 307° |
| 2026-05-05 20:41 | 40.82829 | -112.35534 | 18523 ft | 366 kts | 307° |
| 2026-05-05 20:41 | 40.84294 | -112.38253 | 19121 ft | 369 kts | 307° |
| 2026-05-05 20:41 | 40.85715 | -112.41147 | 19695 ft | 374 kts | 298° |
| 2026-05-05 20:41 | 40.86556 | -112.44377 | 20245 ft | 381 kts | 283° |
| 2026-05-05 20:42 | 40.86801 | -112.47883 | 20787 ft | 387 kts | 272° |
| 2026-05-05 20:42 | 40.86707 | -112.51465 | 21320 ft | 391 kts | 268° |
| 2026-05-05 20:42 | 40.86473 | -112.55063 | 21833 ft | 395 kts | 266° |
| 2026-05-05 20:42 | 40.86166 | -112.58684 | 22314 ft | 399 kts | 265° |
| 2026-05-05 20:43 | 40.85858 | -112.62332 | 22809 ft | 401 kts | 266° |
| 2026-05-05 20:43 | 40.85578 | -112.66012 | 23280 ft | 404 kts | 266° |
| 2026-05-05 20:43 | 40.85284 | -112.69732 | 23724 ft | 408 kts | 266° |
| 2026-05-05 20:43 | 40.84981 | -112.73472 | 24173 ft | 411 kts | 266° |
| 2026-05-05 20:44 | 40.84671 | -112.77242 | 24586 ft | 415 kts | 266° |
| 2026-05-05 20:44 | 40.84356 | -112.81053 | 24985 ft | 418 kts | 266° |
| 2026-05-05 20:44 | 40.84114 | -112.84891 | 25382 ft | 421 kts | 270° |
| 2026-05-05 20:44 | 40.84062 | -112.88761 | 25774 ft | 423 kts | 273° |
| 2026-05-05 20:45 | 40.84137 | -112.96523 | 26526 ft | 428 kts | 275° |
| 2026-05-05 20:45 | 40.84541 | -113.00395 | 26881 ft | 425 kts | 288° |
| 2026-05-05 20:45 | 40.85452 | -113.04100 | 27259 ft | 424 kts | 294° |
| 2026-05-05 20:46 | 40.86488 | -113.07755 | 27622 ft | 425 kts | 295° |
| 2026-05-05 20:46 | 40.87537 | -113.11420 | 27981 ft | 428 kts | 296° |
| 2026-05-05 20:46 | 40.88586 | -113.15110 | 28339 ft | 430 kts | 296° |
| 2026-05-05 20:46 | 40.89634 | -113.18830 | 28664 ft | 432 kts | 296° |
| 2026-05-05 20:47 | 40.90660 | -113.22557 | 29116 ft | 431 kts | 296° |
| 2026-05-05 20:47 | 40.91676 | -113.26249 | 29539 ft | 434 kts | 296° |
| 2026-05-05 20:47 | 40.92690 | -113.30020 | 30026 ft | 437 kts | 296° |
| 2026-05-05 20:47 | 40.93678 | -113.33862 | 30514 ft | 439 kts | 295° |
| 2026-05-05 20:48 | 40.94663 | -113.37696 | 30813 ft | 444 kts | 292° |
| 2026-05-05 20:48 | 40.95152 | -113.41802 | 30989 ft | 460 kts | 278° |
| 2026-05-05 20:48 | 40.94958 | -113.46021 | 31169 ft | 474 kts | 266° |
| 2026-05-05 20:48 | 40.94069 | -113.50280 | 31364 ft | 485 kts | 253° |
| 2026-05-05 20:49 | 40.92805 | -113.54434 | 31603 ft | 487 kts | 254° |
| 2026-05-05 20:49 | 40.91598 | -113.58632 | 31830 ft | 490 kts | 253° |
| 2026-05-05 20:49 | 40.89056 | -113.67135 | 31905 ft | 501 kts | 253° |
| 2026-05-05 20:50 | 40.86468 | -113.75731 | 31901 ft | 504 kts | 253° |
| 2026-05-05 20:50 | 40.84554 | -113.84467 | 31895 ft | 490 kts | 266° |
| 2026-05-05 20:51 | 40.84143 | -113.93364 | 31900 ft | 483 kts | 275° |
| 2026-05-05 20:51 | 40.84054 | -114.02241 | 31900 ft | 484 kts | 275° |
| 2026-05-05 20:52 | 40.83969 | -114.11139 | 31901 ft | 489 kts | 275° |
| 2026-05-05 20:52 | 40.83886 | -114.19765 | 31902 ft | 488 kts | 275° |
| 2026-05-05 20:53 | 40.83797 | -114.28739 | 31903 ft | 488 kts | 275° |
| 2026-05-05 20:53 | 40.83767 | -114.37657 | 31905 ft | 488 kts | 276° |
| 2026-05-05 20:54 | 40.83695 | -114.46646 | 31908 ft | 489 kts | 275° |
| 2026-05-05 20:54 | 40.83590 | -114.55657 | 31912 ft | 490 kts | 275° |
| 2026-05-05 20:55 | 40.83473 | -114.64669 | 31916 ft | 491 kts | 275° |
| 2026-05-05 20:55 | 40.83344 | -114.73615 | 31919 ft | 492 kts | 274° |
| 2026-05-05 20:56 | 40.82631 | -114.82652 | 31925 ft | 498 kts | 267° |
| 2026-05-05 20:56 | 40.81517 | -114.91699 | 31930 ft | 499 kts | 266° |
| 2026-05-05 20:57 | 40.80442 | -115.00766 | 31935 ft | 498 kts | 267° |
| 2026-05-05 20:57 | 40.79416 | -115.09824 | 31939 ft | 499 kts | 267° |
| 2026-05-05 20:58 | 40.78364 | -115.18890 | 31945 ft | 500 kts | 267° |
| 2026-05-05 20:58 | 40.77301 | -115.27958 | 31949 ft | 506 kts | 266° |
| 2026-05-05 20:59 | 40.76212 | -115.37192 | 31947 ft | 508 kts | 266° |
| 2026-05-05 20:59 | 40.75122 | -115.46372 | 31949 ft | 503 kts | 266° |
| 2026-05-05 21:00 | 40.74028 | -115.55485 | 31949 ft | 504 kts | 266° |
| 2026-05-05 21:00 | 40.72928 | -115.64556 | 31950 ft | 504 kts | 266° |
| 2026-05-05 21:01 | 40.71811 | -115.73705 | 31950 ft | 506 kts | 266° |
| 2026-05-05 21:01 | 40.70682 | -115.82878 | 31951 ft | 506 kts | 266° |
| 2026-05-05 21:02 | 40.69586 | -115.92046 | 31952 ft | 507 kts | 266° |
| 2026-05-05 21:02 | 40.68476 | -116.01230 | 31953 ft | 508 kts | 266° |
| 2026-05-05 21:03 | 40.67352 | -116.10381 | 31957 ft | 510 kts | 266° |
| 2026-05-05 21:03 | 40.66206 | -116.19608 | 31961 ft | 510 kts | 266° |
| 2026-05-05 21:04 | 40.65052 | -116.28826 | 31965 ft | 509 kts | 266° |
| 2026-05-05 21:04 | 40.63891 | -116.38030 | 31969 ft | 510 kts | 266° |
| 2026-05-05 21:05 | 40.62719 | -116.47252 | 31973 ft | 510 kts | 266° |
| 2026-05-05 21:05 | 40.61565 | -116.56476 | 31975 ft | 510 kts | 266° |
| 2026-05-05 21:06 | 40.60392 | -116.65626 | 31978 ft | 510 kts | 266° |
| 2026-05-05 21:06 | 40.59188 | -116.74841 | 31979 ft | 511 kts | 265° |
| 2026-05-05 21:07 | 40.57976 | -116.84044 | 31980 ft | 511 kts | 265° |
| 2026-05-05 21:07 | 40.56602 | -116.93232 | 31980 ft | 515 kts | 260° |
| 2026-05-05 21:08 | 40.54396 | -117.02184 | 31980 ft | 518 kts | 255° |
| 2026-05-05 21:08 | 40.51996 | -117.11136 | 31979 ft | 518 kts | 255° |
| 2026-05-05 21:09 | 40.49601 | -117.20120 | 31979 ft | 522 kts | 255° |
| 2026-05-05 21:09 | 40.47216 | -117.29135 | 31978 ft | 528 kts | 255° |
| 2026-05-05 21:10 | 40.44805 | -117.38232 | 31968 ft | 526 kts | 255° |
| 2026-05-05 21:10 | 40.42425 | -117.47308 | 31960 ft | 525 kts | 255° |
| 2026-05-05 21:11 | 40.40042 | -117.56343 | 31962 ft | 525 kts | 255° |
| 2026-05-05 21:11 | 40.37632 | -117.65393 | 31964 ft | 528 kts | 255° |
| 2026-05-05 21:12 | 40.35202 | -117.74529 | 31960 ft | 528 kts | 255° |
| 2026-05-05 21:12 | 40.32756 | -117.83617 | 31957 ft | 529 kts | 254° |
| 2026-05-05 21:13 | 40.30304 | -117.92668 | 31961 ft | 531 kts | 255° |
| 2026-05-05 21:13 | 40.27849 | -118.01775 | 31973 ft | 529 kts | 255° |
| 2026-05-05 21:14 | 40.25390 | -118.10861 | 31970 ft | 530 kts | 254° |
| 2026-05-05 21:14 | 40.22899 | -118.20013 | 31976 ft | 533 kts | 255° |
| 2026-05-05 21:15 | 40.20443 | -118.29059 | 31975 ft | 531 kts | 254° |
| 2026-05-05 21:15 | 40.17948 | -118.38159 | 31978 ft | 530 kts | 254° |
| 2026-05-05 21:16 | 40.15441 | -118.47190 | 31977 ft | 527 kts | 254° |
| 2026-05-05 21:16 | 40.12950 | -118.56228 | 31981 ft | 530 kts | 254° |
| 2026-05-05 21:17 | 40.10282 | -118.65253 | 31980 ft | 534 kts | 252° |
| 2026-05-05 21:17 | 40.07578 | -118.74229 | 31976 ft | 528 kts | 252° |
| 2026-05-05 21:18 | 40.04884 | -118.83104 | 31983 ft | 527 kts | 252° |
| 2026-05-05 21:18 | 40.02173 | -118.91999 | 31985 ft | 525 kts | 252° |
| 2026-05-05 21:19 | 39.99499 | -119.00802 | 31987 ft | 525 kts | 252° |
| 2026-05-05 21:19 | 39.96803 | -119.09749 | 31994 ft | 533 kts | 252° |
| 2026-05-05 21:20 | 39.94080 | -119.18759 | 31987 ft | 532 kts | 251° |
| 2026-05-05 21:20 | 39.91363 | -119.27633 | 31999 ft | 529 kts | 252° |
| 2026-05-05 21:21 | 39.88623 | -119.36559 | 31997 ft | 530 kts | 251° |
| 2026-05-05 21:21 | 39.85886 | -119.45437 | 32000 ft | 526 kts | 251° |
| 2026-05-05 21:22 | 39.83619 | -119.52774 | 32001 ft | 524 kts | 251° |
| 2026-05-05 21:22 | 39.80896 | -119.61562 | 32003 ft | 524 kts | 251° |
| 2026-05-05 21:23 | 39.78164 | -119.70350 | 32005 ft | 524 kts | 251° |
| 2026-05-05 21:23 | 39.75574 | -119.78656 | 32012 ft | 524 kts | 251° |
| 2026-05-05 21:24 | 39.73387 | -119.85653 | 32018 ft | 524 kts | 251° |
| 2026-05-05 21:24 | 39.71497 | -119.91683 | 32020 ft | 525 kts | 251° |
| 2026-05-05 21:25 | 39.68734 | -120.00472 | 32024 ft | 525 kts | 251° |
| 2026-05-05 21:25 | 39.65965 | -120.09253 | 32029 ft | 525 kts | 251° |
| 2026-05-05 21:26 | 39.63188 | -120.18029 | 32044 ft | 525 kts | 251° |
| 2026-05-05 21:26 | 39.60429 | -120.26725 | 32058 ft | 524 kts | 251° |
| 2026-05-05 21:27 | 39.57646 | -120.35467 | 32066 ft | 524 kts | 251° |
| 2026-05-05 21:27 | 39.54856 | -120.44204 | 32070 ft | 524 kts | 251° |
| 2026-05-05 21:28 | 39.52060 | -120.52934 | 32073 ft | 523 kts | 251° |
| 2026-05-05 21:28 | 39.49275 | -120.61604 | 32078 ft | 524 kts | 251° |
| 2026-05-05 21:29 | 39.46468 | -120.70313 | 32082 ft | 523 kts | 250° |
| 2026-05-05 21:29 | 39.43684 | -120.79010 | 32084 ft | 522 kts | 250° |
| 2026-05-05 21:30 | 39.40867 | -120.87692 | 32083 ft | 523 kts | 250° |
| 2026-05-05 21:30 | 39.38051 | -120.96315 | 32080 ft | 523 kts | 250° |
| 2026-05-05 21:31 | 39.35201 | -121.04989 | 32075 ft | 522 kts | 249° |
| 2026-05-05 21:31 | 39.31739 | -121.13269 | 32066 ft | 526 kts | 238° |
| 2026-05-05 21:32 | 39.27422 | -121.20829 | 32062 ft | 526 kts | 232° |
| 2026-05-05 21:32 | 39.22931 | -121.28299 | 32059 ft | 526 kts | 233° |
| 2026-05-05 21:33 | 39.18481 | -121.35797 | 32054 ft | 526 kts | 233° |
| 2026-05-05 21:33 | 39.14047 | -121.43305 | 32051 ft | 525 kts | 233° |
| 2026-05-05 21:34 | 39.09647 | -121.50829 | 32054 ft | 525 kts | 233° |
| 2026-05-05 21:34 | 39.05280 | -121.58288 | 32059 ft | 525 kts | 233° |
| 2026-05-05 21:35 | 39.00875 | -121.65782 | 32059 ft | 525 kts | 233° |
| 2026-05-05 21:35 | 38.96458 | -121.73276 | 32062 ft | 525 kts | 233° |
| 2026-05-05 21:36 | 38.92258 | -121.80384 | 32062 ft | 526 kts | 233° |
| 2026-05-05 21:36 | 38.87822 | -121.87872 | 32061 ft | 526 kts | 233° |
| 2026-05-05 21:37 | 38.83411 | -121.95301 | 32065 ft | 526 kts | 233° |
| 2026-05-05 21:37 | 38.78966 | -122.02771 | 31876 ft | 526 kts | 233° |
| 2026-05-05 21:38 | 38.76743 | -122.06502 | 31627 ft | 524 kts | 233° |
| 2026-05-05 21:38 | 38.74538 | -122.10204 | 31132 ft | 521 kts | 233° |
| 2026-05-05 21:38 | 38.72343 | -122.13885 | 30314 ft | 520 kts | 233° |
| 2026-05-05 21:38 | 38.70140 | -122.17593 | 29481 ft | 521 kts | 233° |
| 2026-05-05 21:39 | 38.67958 | -122.21245 | 28658 ft | 522 kts | 233° |
| 2026-05-05 21:39 | 38.65745 | -122.24925 | 27806 ft | 522 kts | 233° |
| 2026-05-05 21:39 | 38.63535 | -122.28605 | 27145 ft | 517 kts | 233° |
| 2026-05-05 21:39 | 38.61373 | -122.32189 | 27023 ft | 500 kts | 233° |
| 2026-05-05 21:40 | 38.59284 | -122.35661 | 26786 ft | 487 kts | 233° |
| 2026-05-05 21:40 | 38.57236 | -122.39052 | 26534 ft | 475 kts | 234° |
| 2026-05-05 21:40 | 38.55212 | -122.42278 | 26285 ft | 465 kts | 230° |
| 2026-05-05 21:40 | 38.53018 | -122.45250 | 25981 ft | 457 kts | 224° |
| 2026-05-05 21:41 | 38.50645 | -122.47918 | 25514 ft | 453 kts | 220° |
| 2026-05-05 21:41 | 38.48191 | -122.50428 | 25042 ft | 449 kts | 218° |
| 2026-05-05 21:41 | 38.45752 | -122.52903 | 24602 ft | 445 kts | 219° |
| 2026-05-05 21:41 | 38.43345 | -122.55360 | 24157 ft | 440 kts | 219° |
| 2026-05-05 21:42 | 38.40952 | -122.57808 | 23566 ft | 440 kts | 220° |
| 2026-05-05 21:42 | 38.38596 | -122.60222 | 23070 ft | 437 kts | 220° |
| 2026-05-05 21:42 | 38.36236 | -122.62641 | 22582 ft | 433 kts | 220° |
| 2026-05-05 21:42 | 38.33894 | -122.65041 | 22101 ft | 430 kts | 220° |
| 2026-05-05 21:43 | 38.31571 | -122.67420 | 21627 ft | 426 kts | 220° |
| 2026-05-05 21:43 | 38.29272 | -122.69776 | 21153 ft | 423 kts | 220° |
| 2026-05-05 21:43 | 38.26986 | -122.72117 | 20675 ft | 420 kts | 220° |
| 2026-05-05 21:43 | 38.24586 | -122.74207 | 20188 ft | 418 kts | 207° |
| 2026-05-05 21:44 | 38.21853 | -122.75395 | 19743 ft | 412 kts | 189° |
| 2026-05-05 21:44 | 38.19028 | -122.75591 | 19400 ft | 403 kts | 175° |
| 2026-05-05 21:44 | 38.16272 | -122.75160 | 18982 ft | 397 kts | 167° |
| 2026-05-05 21:44 | 38.13622 | -122.74413 | 18507 ft | 394 kts | 163° |
| 2026-05-05 21:45 | 38.10972 | -122.73555 | 18072 ft | 391 kts | 163° |
| 2026-05-05 21:45 | 38.08336 | -122.72729 | 17608 ft | 389 kts | 164° |
| 2026-05-05 21:45 | 38.05710 | -122.71931 | 17165 ft | 387 kts | 164° |
| 2026-05-05 21:45 | 38.03095 | -122.71151 | 16719 ft | 385 kts | 164° |
| 2026-05-05 21:46 | 38.00490 | -122.70383 | 16303 ft | 383 kts | 165° |
| 2026-05-05 21:46 | 37.97891 | -122.69626 | 15918 ft | 382 kts | 165° |
| 2026-05-05 21:46 | 37.95296 | -122.68873 | 15531 ft | 381 kts | 165° |
| 2026-05-05 21:46 | 37.92752 | -122.68128 | 15178 ft | 378 kts | 163° |
| 2026-05-05 21:47 | 37.90283 | -122.67045 | 14809 ft | 373 kts | 153° |
| 2026-05-05 21:47 | 37.88030 | -122.65465 | 14442 ft | 367 kts | 141° |
| 2026-05-05 21:47 | 37.86063 | -122.63445 | 14131 ft | 361 kts | 134° |
| 2026-05-05 21:47 | 37.84219 | -122.61355 | 14061 ft | 351 kts | 134° |
| 2026-05-05 21:48 | 37.82424 | -122.59358 | 13966 ft | 336 kts | 134° |
| 2026-05-05 21:48 | 37.80670 | -122.57471 | 13771 ft | 327 kts | 135° |
| 2026-05-05 21:48 | 37.78933 | -122.55642 | 13413 ft | 323 kts | 135° |
| 2026-05-05 21:48 | 37.77209 | -122.53824 | 12992 ft | 321 kts | 135° |
| 2026-05-05 21:49 | 37.75521 | -122.52044 | 12541 ft | 319 kts | 135° |
| 2026-05-05 21:49 | 37.73818 | -122.50244 | 12061 ft | 317 kts | 135° |
| 2026-05-05 21:49 | 37.72137 | -122.48455 | 11617 ft | 315 kts | 135° |
| 2026-05-05 21:49 | 37.70466 | -122.46676 | 11221 ft | 312 kts | 136° |
| 2026-05-05 21:50 | 37.68827 | -122.44934 | 11076 ft | 304 kts | 136° |
| 2026-05-05 21:50 | 37.67208 | -122.43211 | 11011 ft | 304 kts | 136° |
| 2026-05-05 21:50 | 37.65577 | -122.41479 | 11009 ft | 308 kts | 136° |
| 2026-05-05 21:50 | 37.63928 | -122.39731 | 11007 ft | 311 kts | 136° |
| 2026-05-05 21:51 | 37.62274 | -122.37972 | 11003 ft | 311 kts | 136° |
| 2026-05-05 21:51 | 37.60535 | -122.36331 | 10843 ft | 315 kts | 143° |
| 2026-05-05 21:51 | 37.58636 | -122.34934 | 10677 ft | 315 kts | 149° |
| 2026-05-05 21:51 | 37.56689 | -122.33681 | 10547 ft | 313 kts | 151° |
| 2026-05-05 21:52 | 37.52977 | -122.30960 | 10298 ft | 305 kts | 137° |
| 2026-05-05 21:52 | 37.51436 | -122.29193 | 10144 ft | 302 kts | 134° |
| 2026-05-05 21:52 | 37.49928 | -122.27378 | 10000 ft | 297 kts | 134° |
| 2026-05-05 21:53 | 37.48444 | -122.25582 | 9847 ft | 294 kts | 133° |
| 2026-05-05 21:53 | 37.46975 | -122.23788 | 9549 ft | 293 kts | 133° |
| 2026-05-05 21:53 | 37.45541 | -122.21974 | 9246 ft | 291 kts | 129° |
| 2026-05-05 21:53 | 37.44353 | -122.19923 | 8948 ft | 288 kts | 120° |
| 2026-05-05 21:54 | 37.43337 | -122.17761 | 8647 ft | 286 kts | 118° |
| 2026-05-05 21:54 | 37.42341 | -122.15602 | 8347 ft | 285 kts | 118° |
| 2026-05-05 21:54 | 37.41352 | -122.13446 | 8048 ft | 284 kts | 118° |
| 2026-05-05 21:54 | 37.40378 | -122.11325 | 7752 ft | 284 kts | 118° |
| 2026-05-05 21:55 | 37.39672 | -122.09040 | 7433 ft | 279 kts | 94° |
| 2026-05-05 21:55 | 37.39971 | -122.06697 | 7178 ft | 270 kts | 63° |
| 2026-05-05 21:55 | 37.41182 | -122.04987 | 7019 ft | 258 kts | 32° |
| 2026-05-05 21:55 | 37.42779 | -122.04112 | 6999 ft | 244 kts | 15° |
| 2026-05-05 21:56 | 37.44478 | -122.03770 | 6323 ft | 253 kts | 7° |
| 2026-05-05 21:56 | 37.46262 | -122.03534 | 5676 ft | 260 kts | 357° |
| 2026-05-05 21:56 | 37.47906 | -122.04287 | 5404 ft | 250 kts | 323° |
| 2026-05-05 21:56 | 37.48967 | -122.05959 | 5142 ft | 243 kts | 301° |
| 2026-05-05 21:57 | 37.49725 | -122.07837 | 4831 ft | 238 kts | 297° |
| 2026-05-05 21:57 | 37.50453 | -122.09725 | 4484 ft | 243 kts | 296° |
| 2026-05-05 21:57 | 37.51211 | -122.11705 | 4193 ft | 269 kts | 298° |
| 2026-05-05 21:57 | 37.52122 | -122.13816 | 3825 ft | 275 kts | 299° |
| 2026-05-05 21:58 | 37.53033 | -122.15920 | 3525 ft | 269 kts | 300° |
| 2026-05-05 21:58 | 37.53927 | -122.17977 | 3134 ft | 266 kts | 297° |
| 2026-05-05 21:58 | 37.54773 | -122.20028 | 2758 ft | 258 kts | 297° |
| 2026-05-05 21:58 | 37.55577 | -122.21956 | 2426 ft | 239 kts | 297° |
| 2026-05-05 21:59 | 37.56315 | -122.23715 | 2126 ft | 221 kts | 297° |
| 2026-05-05 21:59 | 37.57016 | -122.25385 | 1828 ft | 206 kts | 297° |
| 2026-05-05 21:59 | 37.57655 | -122.26908 | 1560 ft | 192 kts | 297° |
| 2026-05-05 21:59 | 37.58255 | -122.28336 | 1317 ft | 176 kts | 296° |
| 2026-05-05 22:00 | 37.58806 | -122.29656 | 1059 ft | 164 kts | 295° |
| 2026-05-05 22:00 | 37.59307 | -122.30908 | 760 ft | 155 kts | 295° |
| 2026-05-05 22:00 | 37.59801 | -122.32047 | 643 ft | 144 kts | 296° |
| 2026-05-05 22:00 | 37.60284 | -122.33156 | 398 ft | 146 kts | 295° |
| 2026-05-05 22:01 | 37.60738 | -122.34239 | 377 ft | 138 kts | 293° |
| 2026-05-05 22:01 | 37.61200 | -122.35363 | 164 ft | 147 kts | 295° |
| 2026-05-05 22:01 | 37.61675 | -122.36437 | 30 ft | 128 kts | 286° |
| 2026-05-05 22:01 | 37.61952 | -122.37150 | 21 ft | 56 kts | 298° |
| 2026-05-05 22:02 | 37.62093 | -122.37514 | 21 ft | 37 kts | 304° |
| 2026-05-05 22:02 | 37.62099 | -122.37740 | 21 ft | 22 kts | 230° |
| 2026-05-05 22:02 | 37.62012 | -122.37862 | 21 ft | 17 kts | 229° |
| 2026-05-05 22:02 | 37.61932 | -122.37982 | 21 ft | 19 kts | 230° |
| 2026-05-05 22:03 | 37.61932 | -122.38116 | 21 ft | 14 kts | 298° |
| 2026-05-05 22:03 | 37.61945 | -122.38229 | 21 ft | 15 kts | 226° |
| 2026-05-05 22:03 | 37.61885 | -122.38303 | 21 ft | 9 kts | 266° |
| 2026-05-05 22:03 | 37.61888 | -122.38349 | 21 ft | 3 kts | 279° |
| 2026-05-05 22:04 | 37.61891 | -122.38369 | 21 ft | 0 kts | 281° |